sensor_id;sensor_type;location;lat;lon;timestamp;temperature;humidity
33988;DHT22;37428;53.580;-1.666;2022-07-21T00:03:11;19.70;63.70
33988;DHT22;37428;53.580;-1.666;2022-07-21T00:06:17;19.60;64.10
33988;DHT22;37428;53.580;-1.666;2022-07-21T00:09:35;19.60;64.00
33988;DHT22;37428;53.580;-1.666;2022-07-21T00:12:38;19.60;64.30
33988;DHT22;37428;53.580;-1.666;2022-07-21T00:15:42;19.60;64.30
33988;DHT22;37428;53.580;-1.666;2022-07-21T00:18:44;19.70;64.30
33988;DHT22;37428;53.580;-1.666;2022-07-21T00:21:47;19.60;64.30
33988;DHT22;37428;53.580;-1.666;2022-07-21T00:24:55;19.50;64.40
33988;DHT22;37428;53.580;-1.666;2022-07-21T00:28:12;19.50;64.50
33988;DHT22;37428;53.580;-1.666;2022-07-21T00:31:30;19.60;64.30
33988;DHT22;37428;53.580;-1.666;2022-07-21T00:34:40;19.60;64.30
33988;DHT22;37428;53.580;-1.666;2022-07-21T00:37:57;19.60;64.20
33988;DHT22;37428;53.580;-1.666;2022-07-21T00:41:15;19.60;64.10
33988;DHT22;37428;53.580;-1.666;2022-07-21T00:44:40;19.50;64.50
33988;DHT22;37428;53.580;-1.666;2022-07-21T00:47:45;19.50;64.50
33988;DHT22;37428;53.580;-1.666;2022-07-21T00:50:51;19.70;64.30
33988;DHT22;37428;53.580;-1.666;2022-07-21T00:54:34;19.70;63.90
33988;DHT22;37428;53.580;-1.666;2022-07-21T00:57:48;19.60;64.30
33988;DHT22;37428;53.580;-1.666;2022-07-21T01:01:08;19.40;64.60
33988;DHT22;37428;53.580;-1.666;2022-07-21T01:04:14;19.40;65.10
33988;DHT22;37428;53.580;-1.666;2022-07-21T01:07:16;19.30;65.50
33988;DHT22;37428;53.580;-1.666;2022-07-21T01:10:22;19.20;65.50
33988;DHT22;37428;53.580;-1.666;2022-07-21T01:13:30;19.10;66.10
33988;DHT22;37428;53.580;-1.666;2022-07-21T01:16:56;19.10;66.40
33988;DHT22;37428;53.580;-1.666;2022-07-21T01:20:04;19.10;66.40
33988;DHT22;37428;53.580;-1.666;2022-07-21T01:23:08;19.10;66.70
33988;DHT22;37428;53.580;-1.666;2022-07-21T01:26:38;19.20;66.40
33988;DHT22;37428;53.580;-1.666;2022-07-21T01:29:42;19.40;66.00
33988;DHT22;37428;53.580;-1.666;2022-07-21T01:32:51;19.40;65.80
33988;DHT22;37428;53.580;-1.666;2022-07-21T01:35:59;19.40;65.60
33988;DHT22;37428;53.580;-1.666;2022-07-21T01:39:03;19.40;65.70
33988;DHT22;37428;53.580;-1.666;2022-07-21T01:42:26;19.30;66.00
33988;DHT22;37428;53.580;-1.666;2022-07-21T01:45:57;19.30;66.10
33988;DHT22;37428;53.580;-1.666;2022-07-21T01:49:21;19.40;65.80
33988;DHT22;37428;53.580;-1.666;2022-07-21T01:52:24;19.30;66.20
33988;DHT22;37428;53.580;-1.666;2022-07-21T01:55:28;19.30;66.30
33988;DHT22;37428;53.580;-1.666;2022-07-21T01:58:43;19.30;66.40
33988;DHT22;37428;53.580;-1.666;2022-07-21T02:01:46;19.20;66.80
33988;DHT22;37428;53.580;-1.666;2022-07-21T02:05:08;19.20;67.00
33988;DHT22;37428;53.580;-1.666;2022-07-21T02:08:27;19.20;67.00
33988;DHT22;37428;53.580;-1.666;2022-07-21T02:11:48;19.20;66.90
33988;DHT22;37428;53.580;-1.666;2022-07-21T02:14:52;19.10;67.20
33988;DHT22;37428;53.580;-1.666;2022-07-21T02:18:11;19.10;67.20
33988;DHT22;37428;53.580;-1.666;2022-07-21T02:21:13;19.20;67.30
33988;DHT22;37428;53.580;-1.666;2022-07-21T02:24:17;19.10;67.40
33988;DHT22;37428;53.580;-1.666;2022-07-21T02:27:24;19.10;67.50
33988;DHT22;37428;53.580;-1.666;2022-07-21T02:30:26;19.10;67.80
33988;DHT22;37428;53.580;-1.666;2022-07-21T02:33:29;19.10;67.60
33988;DHT22;37428;53.580;-1.666;2022-07-21T02:36:37;19.20;67.60
33988;DHT22;37428;53.580;-1.666;2022-07-21T02:40:00;19.10;67.90
33988;DHT22;37428;53.580;-1.666;2022-07-21T02:43:26;19.10;68.10
33988;DHT22;37428;53.580;-1.666;2022-07-21T02:46:29;19.00;68.00
33988;DHT22;37428;53.580;-1.666;2022-07-21T02:49:31;19.00;68.20
33988;DHT22;37428;53.580;-1.666;2022-07-21T02:52:33;19.00;68.60
33988;DHT22;37428;53.580;-1.666;2022-07-21T02:55:36;19.00;68.50
33988;DHT22;37428;53.580;-1.666;2022-07-21T02:58:40;18.90;68.80
33988;DHT22;37428;53.580;-1.666;2022-07-21T03:01:45;18.90;69.10
33988;DHT22;37428;53.580;-1.666;2022-07-21T03:04:58;18.90;69.00
33988;DHT22;37428;53.580;-1.666;2022-07-21T03:08:05;18.90;69.30
33988;DHT22;37428;53.580;-1.666;2022-07-21T03:11:07;18.90;69.10
33988;DHT22;37428;53.580;-1.666;2022-07-21T03:14:11;18.90;69.30
33988;DHT22;37428;53.580;-1.666;2022-07-21T03:17:20;18.90;69.20
33988;DHT22;37428;53.580;-1.666;2022-07-21T03:20:41;18.90;69.50
33988;DHT22;37428;53.580;-1.666;2022-07-21T03:23:51;18.90;69.40
33988;DHT22;37428;53.580;-1.666;2022-07-21T03:27:10;18.90;69.30
33988;DHT22;37428;53.580;-1.666;2022-07-21T03:30:17;18.80;69.60
33988;DHT22;37428;53.580;-1.666;2022-07-21T03:33:36;18.80;69.60
33988;DHT22;37428;53.580;-1.666;2022-07-21T03:36:50;18.90;69.50
33988;DHT22;37428;53.580;-1.666;2022-07-21T03:39:59;18.90;69.50
33988;DHT22;37428;53.580;-1.666;2022-07-21T03:43:25;18.80;69.80
33988;DHT22;37428;53.580;-1.666;2022-07-21T03:46:49;18.70;70.10
33988;DHT22;37428;53.580;-1.666;2022-07-21T03:50:09;18.70;70.50
33988;DHT22;37428;53.580;-1.666;2022-07-21T03:53:15;18.70;70.50
33988;DHT22;37428;53.580;-1.666;2022-07-21T03:56:18;18.70;70.50
33988;DHT22;37428;53.580;-1.666;2022-07-21T03:59:22;18.60;70.70
33988;DHT22;37428;53.580;-1.666;2022-07-21T04:02:27;18.60;71.30
33988;DHT22;37428;53.580;-1.666;2022-07-21T04:05:29;18.60;71.50
33988;DHT22;37428;53.580;-1.666;2022-07-21T04:08:31;18.60;71.30
33988;DHT22;37428;53.580;-1.666;2022-07-21T04:11:39;18.60;71.60
33988;DHT22;37428;53.580;-1.666;2022-07-21T04:14:59;18.60;71.20
33988;DHT22;37428;53.580;-1.666;2022-07-21T04:18:14;18.50;71.60
33988;DHT22;37428;53.580;-1.666;2022-07-21T04:21:18;18.60;71.50
33988;DHT22;37428;53.580;-1.666;2022-07-21T04:24:22;18.60;71.20
33988;DHT22;37428;53.580;-1.666;2022-07-21T04:27:31;18.50;71.20
33988;DHT22;37428;53.580;-1.666;2022-07-21T04:31:04;18.60;71.30
33988;DHT22;37428;53.580;-1.666;2022-07-21T04:34:22;18.60;71.00
33988;DHT22;37428;53.580;-1.666;2022-07-21T04:37:41;18.70;70.70
33988;DHT22;37428;53.580;-1.666;2022-07-21T04:40:53;18.60;70.60
33988;DHT22;37428;53.580;-1.666;2022-07-21T04:43:57;18.60;70.70
33988;DHT22;37428;53.580;-1.666;2022-07-21T04:47:17;18.70;70.60
33988;DHT22;37428;53.580;-1.666;2022-07-21T04:50:23;18.60;70.70
33988;DHT22;37428;53.580;-1.666;2022-07-21T04:53:27;18.60;70.60
33988;DHT22;37428;53.580;-1.666;2022-07-21T04:56:44;18.70;70.50
33988;DHT22;37428;53.580;-1.666;2022-07-21T04:59:53;18.60;70.80
33988;DHT22;37428;53.580;-1.666;2022-07-21T05:03:21;18.60;70.70
33988;DHT22;37428;53.580;-1.666;2022-07-21T05:06:33;18.60;70.70
33988;DHT22;37428;53.580;-1.666;2022-07-21T05:09:36;18.60;71.00
33988;DHT22;37428;53.580;-1.666;2022-07-21T05:12:39;18.60;70.80
33988;DHT22;37428;53.580;-1.666;2022-07-21T05:15:55;18.50;70.80
33988;DHT22;37428;53.580;-1.666;2022-07-21T05:18:57;18.50;71.00
33988;DHT22;37428;53.580;-1.666;2022-07-21T05:22:02;18.50;70.90
33988;DHT22;37428;53.580;-1.666;2022-07-21T05:25:05;18.50;71.30
33988;DHT22;37428;53.580;-1.666;2022-07-21T05:28:11;18.40;71.40
33988;DHT22;37428;53.580;-1.666;2022-07-21T05:31:19;18.30;72.00
33988;DHT22;37428;53.580;-1.666;2022-07-21T05:34:22;18.20;72.00
33988;DHT22;37428;53.580;-1.666;2022-07-21T05:37:33;18.30;72.20
33988;DHT22;37428;53.580;-1.666;2022-07-21T05:40:47;18.30;72.20
33988;DHT22;37428;53.580;-1.666;2022-07-21T05:44:09;18.30;72.90
33988;DHT22;37428;53.580;-1.666;2022-07-21T05:47:25;18.30;72.70
33988;DHT22;37428;53.580;-1.666;2022-07-21T05:50:30;18.40;72.80
33988;DHT22;37428;53.580;-1.666;2022-07-21T05:53:42;18.50;72.80
33988;DHT22;37428;53.580;-1.666;2022-07-21T05:56:51;18.30;73.50
33988;DHT22;37428;53.580;-1.666;2022-07-21T06:00:05;18.40;73.70
33988;DHT22;37428;53.580;-1.666;2022-07-21T06:03:41;18.40;74.50
33988;DHT22;37428;53.580;-1.666;2022-07-21T06:06:33;18.30;74.40
33988;DHT22;37428;53.580;-1.666;2022-07-21T06:09:56;18.40;75.00
33988;DHT22;37428;53.580;-1.666;2022-07-21T06:13:39;18.50;75.20
33988;DHT22;37428;53.580;-1.666;2022-07-21T06:17:07;18.50;75.00
33988;DHT22;37428;53.580;-1.666;2022-07-21T06:20:21;18.60;75.60
33988;DHT22;37428;53.580;-1.666;2022-07-21T06:23:24;18.40;76.10
33988;DHT22;37428;53.580;-1.666;2022-07-21T06:26:31;18.30;76.10
33988;DHT22;37428;53.580;-1.666;2022-07-21T06:29:51;18.30;76.70
33988;DHT22;37428;53.580;-1.666;2022-07-21T06:33:09;18.30;76.60
33988;DHT22;37428;53.580;-1.666;2022-07-21T06:36:27;18.30;77.40
33988;DHT22;37428;53.580;-1.666;2022-07-21T06:39:43;18.10;78.30
33988;DHT22;37428;53.580;-1.666;2022-07-21T06:42:48;18.20;78.10
33988;DHT22;37428;53.580;-1.666;2022-07-21T06:45:59;18.20;77.80
33988;DHT22;37428;53.580;-1.666;2022-07-21T06:49:14;18.00;79.80
33988;DHT22;37428;53.580;-1.666;2022-07-21T06:52:28;17.70;81.10
33988;DHT22;37428;53.580;-1.666;2022-07-21T06:55:30;17.80;80.70
33988;DHT22;37428;53.580;-1.666;2022-07-21T06:58:38;17.80;80.10
33988;DHT22;37428;53.580;-1.666;2022-07-21T07:01:40;17.70;80.90
33988;DHT22;37428;53.580;-1.666;2022-07-21T07:04:42;17.70;80.90
33988;DHT22;37428;53.580;-1.666;2022-07-21T07:07:49;17.60;80.10
33988;DHT22;37428;53.580;-1.666;2022-07-21T07:10:55;17.60;80.20
33988;DHT22;37428;53.580;-1.666;2022-07-21T07:14:03;17.80;79.10
33988;DHT22;37428;53.580;-1.666;2022-07-21T07:17:05;17.90;78.90
33988;DHT22;37428;53.580;-1.666;2022-07-21T07:20:20;18.00;77.80
33988;DHT22;37428;53.580;-1.666;2022-07-21T07:23:22;18.00;77.10
33988;DHT22;37428;53.580;-1.666;2022-07-21T07:26:24;18.10;76.90
33988;DHT22;37428;53.580;-1.666;2022-07-21T07:29:28;18.10;76.30
33988;DHT22;37428;53.580;-1.666;2022-07-21T07:32:31;18.10;76.80
33988;DHT22;37428;53.580;-1.666;2022-07-21T07:35:36;18.10;77.30
33988;DHT22;37428;53.580;-1.666;2022-07-21T07:38:42;18.00;77.80
33988;DHT22;37428;53.580;-1.666;2022-07-21T07:41:50;18.10;77.20
33988;DHT22;37428;53.580;-1.666;2022-07-21T07:45:07;18.00;76.60
33988;DHT22;37428;53.580;-1.666;2022-07-21T07:48:11;17.90;77.40
33988;DHT22;37428;53.580;-1.666;2022-07-21T07:51:18;17.90;77.50
33988;DHT22;37428;53.580;-1.666;2022-07-21T07:54:34;17.80;76.10
33988;DHT22;37428;53.580;-1.666;2022-07-21T07:57:46;17.90;77.40
33988;DHT22;37428;53.580;-1.666;2022-07-21T08:00:58;17.90;76.00
33988;DHT22;37428;53.580;-1.666;2022-07-21T08:04:15;17.90;76.10
33988;DHT22;37428;53.580;-1.666;2022-07-21T08:07:26;18.10;75.70
33988;DHT22;37428;53.580;-1.666;2022-07-21T08:10:40;18.00;75.50
33988;DHT22;37428;53.580;-1.666;2022-07-21T08:13:52;18.00;76.80
33988;DHT22;37428;53.580;-1.666;2022-07-21T08:21:01;18.00;76.00
33988;DHT22;37428;53.580;-1.666;2022-07-21T08:24:04;18.10;75.90
33988;DHT22;37428;53.580;-1.666;2022-07-21T08:27:09;18.30;75.10
33988;DHT22;37428;53.580;-1.666;2022-07-21T08:30:12;18.40;76.20
33988;DHT22;37428;53.580;-1.666;2022-07-21T08:33:16;18.60;76.90
33988;DHT22;37428;53.580;-1.666;2022-07-21T08:36:32;18.70;75.20
33988;DHT22;37428;53.580;-1.666;2022-07-21T08:39:35;18.70;73.90
33988;DHT22;37428;53.580;-1.666;2022-07-21T08:42:37;18.80;73.80
33988;DHT22;37428;53.580;-1.666;2022-07-21T08:46:00;18.80;74.30
33988;DHT22;37428;53.580;-1.666;2022-07-21T08:49:05;18.90;74.20
33988;DHT22;37428;53.580;-1.666;2022-07-21T08:52:09;18.90;72.60
33988;DHT22;37428;53.580;-1.666;2022-07-21T08:55:30;18.80;71.80
33988;DHT22;37428;53.580;-1.666;2022-07-21T08:58:36;18.80;71.60
33988;DHT22;37428;53.580;-1.666;2022-07-21T09:02:02;18.90;71.30
33988;DHT22;37428;53.580;-1.666;2022-07-21T09:05:29;18.90;72.50
33988;DHT22;37428;53.580;-1.666;2022-07-21T09:08:37;18.90;71.30
33988;DHT22;37428;53.580;-1.666;2022-07-21T09:11:47;18.80;71.40
33988;DHT22;37428;53.580;-1.666;2022-07-21T09:15:13;18.90;71.30
33988;DHT22;37428;53.580;-1.666;2022-07-21T09:18:27;19.00;71.20
33988;DHT22;37428;53.580;-1.666;2022-07-21T09:22:02;19.10;70.80
33988;DHT22;37428;53.580;-1.666;2022-07-21T09:24:59;19.10;71.80
33988;DHT22;37428;53.580;-1.666;2022-07-21T09:28:13;19.20;71.10
33988;DHT22;37428;53.580;-1.666;2022-07-21T09:31:16;19.30;70.70
33988;DHT22;37428;53.580;-1.666;2022-07-21T09:34:18;19.40;71.20
33988;DHT22;37428;53.580;-1.666;2022-07-21T09:37:33;19.40;70.90
33988;DHT22;37428;53.580;-1.666;2022-07-21T09:41:05;19.40;68.20
33988;DHT22;37428;53.580;-1.666;2022-07-21T09:44:09;19.40;69.90
33988;DHT22;37428;53.580;-1.666;2022-07-21T09:47:17;19.30;66.70
33988;DHT22;37428;53.580;-1.666;2022-07-21T09:50:20;19.20;67.70
33988;DHT22;37428;53.580;-1.666;2022-07-21T09:53:22;19.30;68.10
33988;DHT22;37428;53.580;-1.666;2022-07-21T09:56:28;19.20;66.60
33988;DHT22;37428;53.580;-1.666;2022-07-21T09:59:30;19.00;66.90
33988;DHT22;37428;53.580;-1.666;2022-07-21T10:02:35;19.00;69.90
33988;DHT22;37428;53.580;-1.666;2022-07-21T10:07:23;19.10;68.60
33988;DHT22;37428;53.580;-1.666;2022-07-21T10:09:19;19.10;68.30
33988;DHT22;37428;53.580;-1.666;2022-07-21T10:12:27;19.10;68.00
33988;DHT22;37428;53.580;-1.666;2022-07-21T10:15:50;19.10;68.00
33988;DHT22;37428;53.580;-1.666;2022-07-21T10:19:18;19.10;67.20
33988;DHT22;37428;53.580;-1.666;2022-07-21T10:22:31;19.20;67.50
33988;DHT22;37428;53.580;-1.666;2022-07-21T10:25:38;19.40;69.10
33988;DHT22;37428;53.580;-1.666;2022-07-21T10:29:26;19.40;67.40
33988;DHT22;37428;53.580;-1.666;2022-07-21T10:32:30;19.50;68.20
33988;DHT22;37428;53.580;-1.666;2022-07-21T10:39:19;19.30;67.50
33988;DHT22;37428;53.580;-1.666;2022-07-21T10:42:28;19.50;67.90
33988;DHT22;37428;53.580;-1.666;2022-07-21T10:45:33;19.50;67.70
33988;DHT22;37428;53.580;-1.666;2022-07-21T10:49:01;19.50;68.40
33988;DHT22;37428;53.580;-1.666;2022-07-21T10:55:51;19.60;68.10
33988;DHT22;37428;53.580;-1.666;2022-07-21T10:59:09;19.60;67.30
33988;DHT22;37428;53.580;-1.666;2022-07-21T11:02:32;19.60;67.80
33988;DHT22;37428;53.580;-1.666;2022-07-21T11:05:35;19.60;67.00
33988;DHT22;37428;53.580;-1.666;2022-07-21T11:08:40;19.50;66.40
33988;DHT22;37428;53.580;-1.666;2022-07-21T11:12:21;19.60;66.60
33988;DHT22;37428;53.580;-1.666;2022-07-21T11:16:15;19.40;67.10
33988;DHT22;37428;53.580;-1.666;2022-07-21T11:19:35;19.70;67.40
33988;DHT22;37428;53.580;-1.666;2022-07-21T11:22:58;19.80;67.30
33988;DHT22;37428;53.580;-1.666;2022-07-21T11:26:06;19.70;65.60
33988;DHT22;37428;53.580;-1.666;2022-07-21T11:29:21;19.60;66.20
33988;DHT22;37428;53.580;-1.666;2022-07-21T11:32:32;19.70;65.60
33988;DHT22;37428;53.580;-1.666;2022-07-21T11:35:46;19.70;66.80
33988;DHT22;37428;53.580;-1.666;2022-07-21T11:38:57;19.80;66.00
33988;DHT22;37428;53.580;-1.666;2022-07-21T11:42:07;19.80;67.00
33988;DHT22;37428;53.580;-1.666;2022-07-21T11:45:16;19.90;67.40
33988;DHT22;37428;53.580;-1.666;2022-07-21T11:48:39;20.00;65.70
33988;DHT22;37428;53.580;-1.666;2022-07-21T11:52:07;20.00;65.50
33988;DHT22;37428;53.580;-1.666;2022-07-21T11:55:12;20.10;65.00
33988;DHT22;37428;53.580;-1.666;2022-07-21T11:58:38;20.10;66.20
33988;DHT22;37428;53.580;-1.666;2022-07-21T12:02:08;20.20;66.00
33988;DHT22;37428;53.580;-1.666;2022-07-21T12:05:32;20.20;65.30
33988;DHT22;37428;53.580;-1.666;2022-07-21T12:08:53;20.20;66.20
33988;DHT22;37428;53.580;-1.666;2022-07-21T12:12:11;20.30;66.20
33988;DHT22;37428;53.580;-1.666;2022-07-21T12:15:37;20.10;65.10
33988;DHT22;37428;53.580;-1.666;2022-07-21T12:19:03;20.20;65.10
33988;DHT22;37428;53.580;-1.666;2022-07-21T12:22:17;20.00;64.80
33988;DHT22;37428;53.580;-1.666;2022-07-21T12:25:36;20.00;66.00
33988;DHT22;37428;53.580;-1.666;2022-07-21T12:28:45;20.00;64.80
33988;DHT22;37428;53.580;-1.666;2022-07-21T12:31:48;19.90;65.50
33988;DHT22;37428;53.580;-1.666;2022-07-21T12:34:53;19.80;66.50
33988;DHT22;37428;53.580;-1.666;2022-07-21T12:37:58;19.70;66.80
33988;DHT22;37428;53.580;-1.666;2022-07-21T12:41:02;19.70;67.00
33988;DHT22;37428;53.580;-1.666;2022-07-21T12:44:13;19.70;67.40
33988;DHT22;37428;53.580;-1.666;2022-07-21T12:47:23;19.70;67.90
33988;DHT22;37428;53.580;-1.666;2022-07-21T12:50:31;19.70;67.50
33988;DHT22;37428;53.580;-1.666;2022-07-21T12:53:48;19.80;68.60
33988;DHT22;37428;53.580;-1.666;2022-07-21T12:56:59;19.90;68.30
33988;DHT22;37428;53.580;-1.666;2022-07-21T13:00:04;19.90;68.90
33988;DHT22;37428;53.580;-1.666;2022-07-21T13:03:07;19.90;67.80
33988;DHT22;37428;53.580;-1.666;2022-07-21T13:06:23;19.90;67.10
33988;DHT22;37428;53.580;-1.666;2022-07-21T13:09:57;19.80;68.40
33988;DHT22;37428;53.580;-1.666;2022-07-21T13:13:13;19.70;67.40
33988;DHT22;37428;53.580;-1.666;2022-07-21T13:16:26;19.80;68.10
33988;DHT22;37428;53.580;-1.666;2022-07-21T13:19:29;19.90;68.10
33988;DHT22;37428;53.580;-1.666;2022-07-21T13:22:44;20.00;66.90
33988;DHT22;37428;53.580;-1.666;2022-07-21T13:25:46;20.00;67.80
33988;DHT22;37428;53.580;-1.666;2022-07-21T13:28:50;20.00;66.50
33988;DHT22;37428;53.580;-1.666;2022-07-21T13:31:52;20.10;66.90
33988;DHT22;37428;53.580;-1.666;2022-07-21T13:34:56;20.10;66.00
33988;DHT22;37428;53.580;-1.666;2022-07-21T13:37:59;20.00;65.90
33988;DHT22;37428;53.580;-1.666;2022-07-21T13:41:19;20.00;66.50
33988;DHT22;37428;53.580;-1.666;2022-07-21T13:44:24;20.10;66.80
33988;DHT22;37428;53.580;-1.666;2022-07-21T13:47:34;20.00;66.60
33988;DHT22;37428;53.580;-1.666;2022-07-21T13:50:37;20.00;67.20
33988;DHT22;37428;53.580;-1.666;2022-07-21T13:53:52;20.00;67.30
33988;DHT22;37428;53.580;-1.666;2022-07-21T13:57:20;19.90;66.10
33988;DHT22;37428;53.580;-1.666;2022-07-21T14:00:23;19.90;66.10
33988;DHT22;37428;53.580;-1.666;2022-07-21T14:03:25;19.80;66.10
33988;DHT22;37428;53.580;-1.666;2022-07-21T14:06:49;19.70;66.60
33988;DHT22;37428;53.580;-1.666;2022-07-21T14:10:33;19.70;68.20
33988;DHT22;37428;53.580;-1.666;2022-07-21T14:13:31;19.70;67.60
33988;DHT22;37428;53.580;-1.666;2022-07-21T14:16:54;19.60;67.90
33988;DHT22;37428;53.580;-1.666;2022-07-21T14:19:57;19.50;69.30
33988;DHT22;37428;53.580;-1.666;2022-07-21T14:23:13;19.60;69.00
33988;DHT22;37428;53.580;-1.666;2022-07-21T14:26:21;19.60;68.50
33988;DHT22;37428;53.580;-1.666;2022-07-21T14:29:26;19.50;68.40
33988;DHT22;37428;53.580;-1.666;2022-07-21T14:32:31;19.50;69.20
33988;DHT22;37428;53.580;-1.666;2022-07-21T14:35:58;19.60;68.90
33988;DHT22;37428;53.580;-1.666;2022-07-21T14:39:11;19.60;68.80
33988;DHT22;37428;53.580;-1.666;2022-07-21T14:42:39;19.70;69.30
33988;DHT22;37428;53.580;-1.666;2022-07-21T14:45:52;19.70;68.80
33988;DHT22;37428;53.580;-1.666;2022-07-21T14:48:55;19.70;68.50
33988;DHT22;37428;53.580;-1.666;2022-07-21T14:51:59;19.70;69.20
33988;DHT22;37428;53.580;-1.666;2022-07-21T14:55:01;19.70;69.00
33988;DHT22;37428;53.580;-1.666;2022-07-21T14:58:03;19.60;69.70
33988;DHT22;37428;53.580;-1.666;2022-07-21T15:01:34;19.70;69.30
33988;DHT22;37428;53.580;-1.666;2022-07-21T15:04:43;19.70;69.10
33988;DHT22;37428;53.580;-1.666;2022-07-21T15:07:45;19.70;68.80
33988;DHT22;37428;53.580;-1.666;2022-07-21T15:10:47;19.70;68.80
33988;DHT22;37428;53.580;-1.666;2022-07-21T15:13:51;19.60;68.60
33988;DHT22;37428;53.580;-1.666;2022-07-21T15:17:12;19.50;69.30
33988;DHT22;37428;53.580;-1.666;2022-07-21T15:20:32;19.50;69.20
33988;DHT22;37428;53.580;-1.666;2022-07-21T15:23:36;19.60;69.80
33988;DHT22;37428;53.580;-1.666;2022-07-21T15:26:43;19.60;69.40
33988;DHT22;37428;53.580;-1.666;2022-07-21T15:30:14;19.40;70.20
33988;DHT22;37428;53.580;-1.666;2022-07-21T15:33:17;19.60;70.00
33988;DHT22;37428;53.580;-1.666;2022-07-21T15:36:28;19.70;69.20
33988;DHT22;37428;53.580;-1.666;2022-07-21T15:39:31;19.70;69.20
33988;DHT22;37428;53.580;-1.666;2022-07-21T15:42:34;19.70;67.90
33988;DHT22;37428;53.580;-1.666;2022-07-21T15:45:38;19.70;68.40
33988;DHT22;37428;53.580;-1.666;2022-07-21T15:48:43;19.60;68.70
33988;DHT22;37428;53.580;-1.666;2022-07-21T15:51:48;19.60;68.40
33988;DHT22;37428;53.580;-1.666;2022-07-21T15:54:56;19.60;69.10
33988;DHT22;37428;53.580;-1.666;2022-07-21T15:58:26;19.60;69.00
33988;DHT22;37428;53.580;-1.666;2022-07-21T16:01:39;19.60;69.20
33988;DHT22;37428;53.580;-1.666;2022-07-21T16:04:44;19.60;69.30
33988;DHT22;37428;53.580;-1.666;2022-07-21T16:07:51;19.60;68.40
33988;DHT22;37428;53.580;-1.666;2022-07-21T16:10:55;19.50;68.60
33988;DHT22;37428;53.580;-1.666;2022-07-21T16:13:57;19.20;70.30
33988;DHT22;37428;53.580;-1.666;2022-07-21T16:17:02;19.20;71.10
33988;DHT22;37428;53.580;-1.666;2022-07-21T16:20:06;19.10;71.80
33988;DHT22;37428;53.580;-1.666;2022-07-21T16:23:14;19.10;72.70
33988;DHT22;37428;53.580;-1.666;2022-07-21T16:27:11;19.10;72.30
33988;DHT22;37428;53.580;-1.666;2022-07-21T16:30:09;19.00;72.90
33988;DHT22;37428;53.580;-1.666;2022-07-21T16:33:49;18.90;73.30
33988;DHT22;37428;53.580;-1.666;2022-07-21T16:36:59;18.80;73.20
33988;DHT22;37428;53.580;-1.666;2022-07-21T16:42:07;18.80;73.90
33988;DHT22;37428;53.580;-1.666;2022-07-21T16:44:08;18.90;73.40
33988;DHT22;37428;53.580;-1.666;2022-07-21T16:47:17;18.90;73.30
33988;DHT22;37428;53.580;-1.666;2022-07-21T16:50:19;18.90;73.30
33988;DHT22;37428;53.580;-1.666;2022-07-21T16:53:21;18.90;73.00
33988;DHT22;37428;53.580;-1.666;2022-07-21T16:56:39;19.00;73.40
33988;DHT22;37428;53.580;-1.666;2022-07-21T16:59:56;19.10;73.10
33988;DHT22;37428;53.580;-1.666;2022-07-21T17:02:58;19.10;72.80
33988;DHT22;37428;53.580;-1.666;2022-07-21T17:06:02;19.20;71.90
33988;DHT22;37428;53.580;-1.666;2022-07-21T17:09:07;19.20;71.60
33988;DHT22;37428;53.580;-1.666;2022-07-21T17:12:24;19.30;71.40
33988;DHT22;37428;53.580;-1.666;2022-07-21T17:15:26;19.40;72.30
33988;DHT22;37428;53.580;-1.666;2022-07-21T17:18:32;19.40;71.60
33988;DHT22;37428;53.580;-1.666;2022-07-21T17:25:21;19.50;71.40
33988;DHT22;37428;53.580;-1.666;2022-07-21T17:28:31;19.40;70.60
33988;DHT22;37428;53.580;-1.666;2022-07-21T17:31:37;19.40;70.90
33988;DHT22;37428;53.580;-1.666;2022-07-21T17:34:39;19.40;71.30
33988;DHT22;37428;53.580;-1.666;2022-07-21T17:37:52;19.50;71.30
33988;DHT22;37428;53.580;-1.666;2022-07-21T17:40:57;19.50;71.70
33988;DHT22;37428;53.580;-1.666;2022-07-21T17:44:27;19.50;72.30
33988;DHT22;37428;53.580;-1.666;2022-07-21T17:47:45;19.50;70.70
33988;DHT22;37428;53.580;-1.666;2022-07-21T17:51:03;19.50;71.40
33988;DHT22;37428;53.580;-1.666;2022-07-21T17:54:30;19.50;71.20
33988;DHT22;37428;53.580;-1.666;2022-07-21T17:57:50;19.60;70.50
33988;DHT22;37428;53.580;-1.666;2022-07-21T18:01:33;19.50;69.90
33988;DHT22;37428;53.580;-1.666;2022-07-21T18:04:47;19.50;70.10
33988;DHT22;37428;53.580;-1.666;2022-07-21T18:07:53;19.40;70.80
33988;DHT22;37428;53.580;-1.666;2022-07-21T18:11:30;19.40;70.00
33988;DHT22;37428;53.580;-1.666;2022-07-21T18:14:49;19.30;70.60
33988;DHT22;37428;53.580;-1.666;2022-07-21T18:22:35;19.30;71.60
33988;DHT22;37428;53.580;-1.666;2022-07-21T18:25:35;19.20;72.00
33988;DHT22;37428;53.580;-1.666;2022-07-21T18:28:37;19.20;72.30
33988;DHT22;37428;53.580;-1.666;2022-07-21T18:32:04;19.30;72.90
33988;DHT22;37428;53.580;-1.666;2022-07-21T18:35:31;19.30;72.90
33988;DHT22;37428;53.580;-1.666;2022-07-21T18:38:34;19.30;71.40
33988;DHT22;37428;53.580;-1.666;2022-07-21T18:41:55;19.30;70.90
33988;DHT22;37428;53.580;-1.666;2022-07-21T18:44:57;19.20;69.90
33988;DHT22;37428;53.580;-1.666;2022-07-21T18:47:59;19.20;70.80
33988;DHT22;37428;53.580;-1.666;2022-07-21T18:51:03;19.10;71.20
33988;DHT22;37428;53.580;-1.666;2022-07-21T18:54:05;19.00;71.70
33988;DHT22;37428;53.580;-1.666;2022-07-21T18:57:07;19.20;70.60
33988;DHT22;37428;53.580;-1.666;2022-07-21T19:04:32;19.30;70.80
33988;DHT22;37428;53.580;-1.666;2022-07-21T19:07:55;19.40;71.20
33988;DHT22;37428;53.580;-1.666;2022-07-21T19:12:41;19.30;71.50
33988;DHT22;37428;53.580;-1.666;2022-07-21T19:14:44;19.40;71.20
33988;DHT22;37428;53.580;-1.666;2022-07-21T19:17:53;19.40;71.70
33988;DHT22;37428;53.580;-1.666;2022-07-21T19:21:11;19.40;71.70
33988;DHT22;37428;53.580;-1.666;2022-07-21T19:24:25;19.40;71.90
33988;DHT22;37428;53.580;-1.666;2022-07-21T19:27:33;19.30;72.00
33988;DHT22;37428;53.580;-1.666;2022-07-21T19:30:59;19.10;72.10
33988;DHT22;37428;53.580;-1.666;2022-07-21T19:34:11;19.20;72.60
33988;DHT22;37428;53.580;-1.666;2022-07-21T19:37:25;19.20;72.50
33988;DHT22;37428;53.580;-1.666;2022-07-21T19:40:45;19.10;72.50
33988;DHT22;37428;53.580;-1.666;2022-07-21T19:44:21;19.10;72.20
33988;DHT22;37428;53.580;-1.666;2022-07-21T19:47:24;18.90;72.40
33988;DHT22;37428;53.580;-1.666;2022-07-21T19:50:45;18.90;73.00
33988;DHT22;37428;53.580;-1.666;2022-07-21T19:53:53;18.90;72.90
33988;DHT22;37428;53.580;-1.666;2022-07-21T19:57:24;19.00;72.80
33988;DHT22;37428;53.580;-1.666;2022-07-21T20:00:28;19.00;72.40
33988;DHT22;37428;53.580;-1.666;2022-07-21T20:03:31;18.90;73.10
33988;DHT22;37428;53.580;-1.666;2022-07-21T20:06:47;18.90;73.10
33988;DHT22;37428;53.580;-1.666;2022-07-21T20:10:38;19.00;72.90
33988;DHT22;37428;53.580;-1.666;2022-07-21T20:13:46;19.00;72.90
33988;DHT22;37428;53.580;-1.666;2022-07-21T20:18:29;19.00;73.10
33988;DHT22;37428;53.580;-1.666;2022-07-21T20:20:53;19.00;72.90